Time;durP1;ratioP1;P1;durP2;ratioP2;P2;SDS_P1;SDS_P2;PMS_P1;PMS_P2;Temp;Humidity;BMP_temperature;BMP_pressure;BME280_temperature;BME280_humidity;BME280_pressure;Samples;Min_cycle;Max_cycle;Signal;HPM_P1;HPM_P2
2022/03/21 00:01:21;;;;;;;18.58;12.50;;;4.90;90.40;;;;;;5033119;28;20029;-77
2022/03/21 00:03:47;;;;;;;18.42;10.85;;;4.90;90.70;;;;;;5055560;28;20021;-77
2022/03/21 00:06:13;;;;;;;17.25;11.07;;;4.80;91.10;;;;;;5056154;28;20033;-76
2022/03/21 00:08:38;;;;;;;17.63;11.93;;;4.70;91.20;;;;;;5058948;28;20108;-76
2022/03/21 00:11:05;;;;;;;18.20;11.85;;;4.70;91.90;;;;;;5058743;28;20025;-72
2022/03/21 00:13:31;;;;;;;19.10;11.30;;;4.70;92.40;;;;;;5061691;28;20025;-78
2022/03/21 00:15:57;;;;;;;20.35;12.93;;;4.70;92.80;;;;;;5057770;28;20029;-76
2022/03/21 00:18:24;;;;;;;19.88;12.23;;;4.60;93.50;;;;;;5054731;28;20085;-77
2022/03/21 00:20:53;;;;;;;19.08;12.73;;;4.60;94.20;;;;;;5054769;28;20402;-77
2022/03/21 00:23:19;;;;;;;22.73;12.60;;;4.60;94.50;;;;;;5054463;28;20370;-80
2022/03/21 00:25:45;;;;;;;20.00;11.82;;;4.60;94.30;;;;;;5055384;28;20056;-76
2022/03/21 00:28:11;;;;;;;20.10;11.73;;;4.60;94.40;;;;;;5054537;28;20059;-76
2022/03/21 00:30:39;;;;;;;20.15;11.75;;;4.60;94.00;;;;;;5055019;28;20021;-75
2022/03/21 00:33:04;;;;;;;18.35;11.18;;;4.50;93.70;;;;;;5054494;28;20129;-74
2022/03/21 00:35:31;;;;;;;21.23;12.25;;;4.60;93.90;;;;;;5054655;28;20072;-77
2022/03/21 00:37:57;;;;;;;23.83;12.02;;;4.50;94.00;;;;;;5054939;28;20032;-77
2022/03/21 00:40:24;;;;;;;19.75;11.50;;;4.60;94.00;;;;;;5054184;28;20029;-77
2022/03/21 00:42:51;;;;;;;20.55;11.88;;;4.50;94.20;;;;;;5054810;28;20362;-77
2022/03/21 00:45:23;;;;;;;21.17;11.68;;;4.50;94.30;;;;;;5053843;28;20459;-76
2022/03/21 00:47:49;;;;;;;19.58;11.02;;;4.50;94.70;;;;;;5055114;28;20028;-76
2022/03/21 00:50:17;;;;;;;18.23;11.38;;;4.40;94.90;;;;;;5053635;28;20049;-76
2022/03/21 00:52:46;;;;;;;18.25;11.85;;;4.40;95.00;;;;;;5054686;28;20061;-76
2022/03/21 00:55:13;;;;;;;20.42;11.70;;;4.40;95.00;;;;;;5053877;28;20470;-76
2022/03/21 00:57:40;;;;;;;21.15;10.80;;;4.30;95.10;;;;;;5054611;28;20108;-76
2022/03/21 01:00:08;;;;;;;19.38;10.68;;;4.30;95.40;;;;;;5054101;28;20404;-75
2022/03/21 01:02:36;;;;;;;21.33;11.13;;;4.30;95.60;;;;;;5055127;28;20112;-76
2022/03/21 01:05:02;;;;;;;19.70;11.32;;;4.30;95.30;;;;;;5054944;28;20032;-76
2022/03/21 01:07:28;;;;;;;20.95;12.50;;;4.40;95.30;;;;;;5053806;28;20035;-76
2022/03/21 01:09:53;;;;;;;17.98;11.23;;;4.30;95.50;;;;;;5054454;28;20108;-76
2022/03/21 01:12:19;;;;;;;18.65;11.45;;;4.30;95.20;;;;;;5053107;28;20124;-76
2022/03/21 01:14:45;;;;;;;17.13;10.70;;;4.30;95.10;;;;;;5054043;28;20033;-76
2022/03/21 01:17:10;;;;;;;17.83;11.88;;;4.20;95.20;;;;;;5053566;28;20355;-75
2022/03/21 01:19:36;;;;;;;16.98;10.48;;;4.20;95.10;;;;;;5054390;28;20033;-76
2022/03/21 01:22:06;;;;;;;20.50;11.65;;;4.20;94.90;;;;;;5054463;28;20029;-75
2022/03/21 01:24:35;;;;;;;18.95;10.85;;;4.20;94.60;;;;;;5035943;28;20029;-75
2022/03/21 01:27:02;;;;;;;19.58;11.38;;;4.20;94.60;;;;;;5054477;28;20238;-76
2022/03/21 01:29:28;;;;;;;16.98;9.68;;;4.20;94.90;;;;;;5053492;28;20064;-76
2022/03/21 01:31:54;;;;;;;17.50;10.43;;;4.10;94.90;;;;;;5053407;28;20402;-77
2022/03/21 01:34:20;;;;;;;18.70;11.40;;;4.00;94.90;;;;;;5052427;28;20023;-76
2022/03/21 01:36:45;;;;;;;17.90;10.80;;;4.00;95.20;;;;;;5053080;28;20017;-76
2022/03/21 01:39:11;;;;;;;17.42;10.70;;;3.90;95.40;;;;;;5052730;28;20029;-75
2022/03/21 01:41:38;;;;;;;14.88;9.80;;;3.90;95.60;;;;;;5053367;28;20354;-77
2022/03/21 01:44:05;;;;;;;20.63;10.30;;;3.90;95.60;;;;;;5053182;28;20163;-74
2022/03/21 01:46:31;;;;;;;17.75;10.48;;;3.90;94.80;;;;;;5053103;28;20025;-75
2022/03/21 01:48:58;;;;;;;14.68;9.25;;;3.90;94.60;;;;;;5034737;28;20048;-75
2022/03/21 01:51:27;;;;;;;19.17;10.98;;;3.80;94.60;;;;;;5070279;28;20062;-76
2022/03/21 01:56:40;;;;;;;17.13;10.88;;;3.70;95.60;;;;;;5072652;28;20044;-75
2022/03/21 01:59:08;;;;;;;15.57;10.52;;;3.70;96.00;;;;;;5072676;28;20119;-73
2022/03/21 02:01:34;;;;;;;19.35;11.60;;;3.70;96.80;;;;;;5073127;28;20028;-77
2022/03/21 02:04:00;;;;;;;17.25;10.52;;;3.60;97.30;;;;;;5073229;28;20102;-77
2022/03/21 02:06:28;;;;;;;16.05;10.38;;;3.70;97.80;;;;;;5071657;28;20067;-77
2022/03/21 02:08:57;;;;;;;18.52;11.38;;;3.70;98.00;;;;;;5072838;28;20020;-77
2022/03/21 02:11:26;;;;;;;15.88;10.27;;;3.60;98.10;;;;;;5071783;28;20111;-76
2022/03/21 02:13:54;;;;;;;18.98;11.18;;;3.60;98.40;;;;;;5072591;28;20055;-77
2022/03/21 02:16:20;;;;;;;18.38;11.13;;;3.50;98.70;;;;;;5071845;28;20031;-75
2022/03/21 02:18:47;;;;;;;20.65;12.07;;;3.50;98.90;;;;;;5072422;28;20034;-75
2022/03/21 02:21:22;;;;;;;23.00;11.95;;;3.50;99.40;;;;;;5071830;28;20033;-75
2022/03/21 02:24:07;;;;;;;16.52;10.18;;;3.50;98.90;;;;;;5072363;28;20455;-76
2022/03/21 02:26:33;;;;;;;19.00;11.27;;;3.60;98.70;;;;;;5071506;28;20046;-76
2022/03/21 02:29:00;;;;;;;17.42;10.50;;;3.60;98.60;;;;;;5072169;28;20537;-76
2022/03/21 02:31:26;;;;;;;19.98;11.02;;;3.60;98.60;;;;;;5071261;28;20599;-76
2022/03/21 02:33:53;;;;;;;19.52;10.95;;;3.60;99.20;;;;;;5072421;28;20056;-76
2022/03/21 02:36:20;;;;;;;19.13;10.90;;;3.60;99.10;;;;;;5071385;28;20037;-76
2022/03/21 02:38:47;;;;;;;18.67;10.15;;;3.70;98.80;;;;;;5072206;28;20109;-76
2022/03/21 02:41:17;;;;;;;17.55;10.70;;;3.80;98.50;;;;;;5071276;28;20036;-76
2022/03/21 02:43:59;;;;;;;18.90;11.30;;;3.90;97.40;;;;;;5072082;28;20466;-75
2022/03/21 02:46:25;;;;;;;19.15;11.85;;;4.00;97.40;;;;;;5071408;28;20381;-77
2022/03/21 02:48:53;;;;;;;18.17;11.07;;;4.10;96.90;;;;;;5071985;28;20052;-76
2022/03/21 02:51:20;;;;;;;17.02;10.35;;;4.10;97.40;;;;;;5054474;28;20114;-76
2022/03/21 02:53:48;;;;;;;15.93;10.02;;;4.00;97.10;;;;;;5051691;28;20393;-75
2022/03/21 02:56:14;;;;;;;17.15;10.50;;;3.90;97.20;;;;;;5050680;28;20044;-75
2022/03/21 02:58:39;;;;;;;17.55;10.77;;;3.80;97.60;;;;;;5052210;28;20025;-76
2022/03/21 03:01:16;;;;;;;17.70;11.10;;;3.70;98.90;;;;;;5051963;28;20021;-76
2022/03/21 03:03:43;;;;;;;16.95;9.90;;;3.70;99.50;;;;;;5051905;28;20476;-75
2022/03/21 03:06:09;;;;;;;18.95;11.18;;;3.60;99.70;;;;;;5051754;28;20067;-73
2022/03/21 03:08:37;;;;;;;17.95;10.10;;;3.60;99.90;;;;;;5051557;28;20064;-76
2022/03/21 03:11:03;;;;;;;15.73;10.50;;;3.60;99.90;;;;;;5051730;28;20154;-76
2022/03/21 03:13:29;;;;;;;16.80;10.35;;;3.60;99.90;;;;;;5050909;28;20032;-76
2022/03/21 03:15:55;;;;;;;17.42;10.38;;;3.50;99.90;;;;;;5051639;28;20033;-77
2022/03/21 03:18:20;;;;;;;18.60;11.35;;;3.40;99.90;;;;;;5050872;28;20032;-76
2022/03/21 03:20:55;;;;;;;15.88;10.20;;;3.40;99.90;;;;;;5033707;28;20033;-77
2022/03/21 03:23:23;;;;;;;21.52;11.45;;;3.40;99.90;;;;;;5050962;28;20111;-75
2022/03/21 03:25:56;;;;;;;16.65;10.82;;;3.40;99.90;;;;;;5051808;28;20166;-76
2022/03/21 03:28:22;;;;;;;18.95;10.80;;;3.30;99.90;;;;;;5050578;28;20025;-75
2022/03/21 03:30:48;;;;;;;17.13;10.10;;;3.20;99.90;;;;;;5051541;28;20128;-76
2022/03/21 03:33:14;;;;;;;17.88;11.07;;;3.20;99.90;;;;;;5050915;28;20455;-75
2022/03/21 03:35:40;;;;;;;18.98;11.48;;;3.10;99.90;;;;;;5051049;28;20036;-76
2022/03/21 03:38:06;;;;;;;17.50;10.48;;;3.10;99.90;;;;;;5051434;28;20063;-76
2022/03/21 03:40:32;;;;;;;19.42;11.25;;;3.00;99.90;;;;;;5032685;28;20068;-77
2022/03/21 03:42:57;;;;;;;18.60;10.85;;;3.00;99.90;;;;;;5051173;28;20029;-76
2022/03/21 03:45:23;;;;;;;17.13;10.05;;;3.10;99.90;;;;;;5050397;28;20036;-76
2022/03/21 03:47:49;;;;;;;15.90;9.10;;;3.10;99.90;;;;;;5051280;28;20021;-77
2022/03/21 03:50:14;;;;;;;19.58;11.20;;;3.10;99.90;;;;;;5058462;28;20040;-76
2022/03/21 03:52:46;;;;;;;20.92;10.70;;;3.00;99.90;;;;;;5071391;28;20052;-76
2022/03/21 03:55:13;;;;;;;17.80;10.27;;;3.00;99.90;;;;;;5070566;28;20033;-73
2022/03/21 03:57:39;;;;;;;16.52;9.95;;;2.90;99.90;;;;;;5071051;28;20071;-76
2022/03/21 04:00:07;;;;;;;17.23;10.65;;;2.90;99.90;;;;;;5070870;28;20048;-76
2022/03/21 04:03:44;;;;;;;18.05;11.13;;;2.80;99.90;;;;;;5070471;28;20040;-76
2022/03/21 04:05:18;;;;;;;19.15;10.65;;;2.90;99.90;;;;;;5070126;28;20123;-74
2022/03/21 04:07:44;;;;;;;17.27;11.02;;;2.80;99.90;;;;;;5072738;28;20063;-76
2022/03/21 04:10:09;;;;;;;18.27;11.18;;;2.80;99.90;;;;;;5074987;28;20074;-73
2022/03/21 04:12:35;;;;;;;20.27;11.63;;;2.80;99.90;;;;;;5073272;28;20031;-76
2022/03/21 04:15:01;;;;;;;18.88;10.65;;;2.70;99.90;;;;;;5074476;28;20029;-77
2022/03/21 04:17:27;;;;;;;17.45;11.02;;;2.70;99.90;;;;;;5073457;28;20032;-76
2022/03/21 04:19:52;;;;;;;16.45;10.85;;;2.70;99.90;;;;;;5070974;28;20025;-77
2022/03/21 04:22:19;;;;;;;18.42;10.70;;;2.60;99.90;;;;;;5070106;28;20036;-76
2022/03/21 04:24:45;;;;;;;19.95;11.25;;;2.60;99.90;;;;;;5071083;28;20470;-76
2022/03/21 04:27:10;;;;;;;19.95;11.05;;;2.50;99.90;;;;;;5070962;28;20036;-73
2022/03/21 04:29:36;;;;;;;16.98;10.35;;;2.60;99.90;;;;;;5070226;28;20028;-77
2022/03/21 04:32:01;;;;;;;16.73;10.13;;;2.70;99.90;;;;;;5071386;28;20492;-76
2022/03/21 04:34:27;;;;;;;17.13;10.30;;;2.90;98.10;;;;;;5070402;28;20103;-77
2022/03/21 04:36:53;;;;;;;14.98;9.27;;;3.00;97.40;;;;;;5071403;28;20056;-74
2022/03/21 04:39:19;;;;;;;17.10;10.32;;;3.10;96.90;;;;;;5070567;28;20028;-76
2022/03/21 04:41:44;;;;;;;16.73;10.85;;;3.10;97.70;;;;;;5071773;28;20027;-75
2022/03/21 04:44:11;;;;;;;19.50;11.07;;;3.10;99.60;;;;;;5070762;28;20078;-76
2022/03/21 04:46:36;;;;;;;22.67;12.30;;;3.10;99.90;;;;;;5071165;28;20024;-75
2022/03/21 04:49:02;;;;;;;20.48;11.38;;;3.00;99.90;;;;;;5074660;28;20028;-78
2022/03/21 04:51:28;;;;;;;23.42;11.88;;;3.00;99.90;;;;;;5055739;28;20057;-77
2022/03/21 04:53:53;;;;;;;22.25;12.00;;;2.90;99.90;;;;;;5054828;28;20129;-77
2022/03/21 04:56:19;;;;;;;22.92;12.70;;;2.80;99.90;;;;;;5053821;28;20116;-76
2022/03/21 04:58:45;;;;;;;24.10;13.35;;;2.80;99.90;;;;;;5054679;28;20418;-78
2022/03/21 05:01:10;;;;;;;21.10;12.70;;;2.70;99.90;;;;;;5054203;28;20075;-75
2022/03/21 05:03:36;;;;;;;20.15;11.70;;;2.70;99.90;;;;;;5053888;28;20028;-75
2022/03/21 05:06:02;;;;;;;19.83;11.40;;;2.70;99.90;;;;;;5053955;28;20386;-75
2022/03/21 05:08:28;;;;;;;19.40;11.82;;;2.70;99.90;;;;;;5053252;28;20100;-75
2022/03/21 05:10:53;;;;;;;20.17;10.65;;;2.70;99.90;;;;;;5053667;28;20105;-75
2022/03/21 05:13:19;;;;;;;17.67;11.13;;;2.60;99.90;;;;;;5053178;28;20468;-76
2022/03/21 05:15:45;;;;;;;20.70;11.95;;;2.70;99.90;;;;;;5053343;28;20044;-76
2022/03/21 05:18:11;;;;;;;22.30;11.80;;;2.60;99.90;;;;;;5053810;28;20063;-76
2022/03/21 05:20:37;;;;;;;19.90;10.30;;;2.60;99.90;;;;;;5053203;28;20049;-75
2022/03/21 05:31:15;;;;;;;17.17;10.90;;;2.50;99.90;;;;;;5052741;28;20040;-72
2022/03/21 05:36:26;;;;;;;21.05;11.18;;;2.50;99.90;;;;;;5052550;28;20036;-76
2022/03/21 05:38:52;;;;;;;21.58;12.15;;;2.50;99.90;;;;;;5053592;28;20021;-76
2022/03/21 05:41:18;;;;;;;22.05;11.85;;;2.50;99.90;;;;;;5052560;28;20079;-75
2022/03/21 05:43:44;;;;;;;20.45;11.75;;;2.60;99.90;;;;;;5053216;28;20033;-77
2022/03/21 05:46:09;;;;;;;21.48;12.25;;;2.60;99.90;;;;;;5052883;28;20048;-78
2022/03/21 05:48:51;;;;;;;22.42;12.40;;;2.70;99.90;;;;;;5052552;28;20025;-77
2022/03/21 05:51:18;;;;;;;20.27;11.38;;;2.70;99.90;;;;;;5068910;28;20055;-73
2022/03/21 05:53:47;;;;;;;19.25;11.30;;;2.80;99.90;;;;;;5073062;28;20048;-78
2022/03/21 05:56:14;;;;;;;18.42;10.95;;;2.80;99.90;;;;;;5072880;28;20028;-74
2022/03/21 05:58:40;;;;;;;20.65;11.25;;;2.90;99.90;;;;;;5072834;28;20036;-78
2022/03/21 06:01:06;;;;;;;19.75;11.07;;;2.90;99.60;;;;;;5072776;28;20082;-78
2022/03/21 06:03:31;;;;;;;18.80;11.23;;;3.00;99.90;;;;;;5072698;28;20028;-78
2022/03/21 06:05:59;;;;;;;20.95;12.38;;;3.10;99.90;;;;;;5072437;28;20444;-76
2022/03/21 06:08:25;;;;;;;23.15;13.13;;;3.10;99.90;;;;;;5072230;28;20032;-79
2022/03/21 06:11:03;;;;;;;21.23;11.10;;;3.10;99.90;;;;;;5072555;28;20470;-76
2022/03/21 06:13:31;;;;;;;20.75;11.48;;;3.20;99.90;;;;;;5072560;28;20094;-78
2022/03/21 06:16:00;;;;;;;19.25;11.70;;;3.30;98.70;;;;;;5072315;28;20032;-79
2022/03/21 06:18:27;;;;;;;20.25;12.27;;;3.40;97.90;;;;;;5072452;28;20374;-78
2022/03/21 06:20:52;;;;;;;21.77;12.68;;;3.50;98.20;;;;;;5073147;28;20032;-75
2022/03/21 06:23:18;;;;;;;17.27;10.82;;;3.50;98.80;;;;;;5072363;28;20044;-75
2022/03/21 06:25:44;;;;;;;19.10;11.40;;;3.50;99.20;;;;;;5073023;28;20033;-78
2022/03/21 06:28:09;;;;;;;21.48;12.50;;;3.60;99.30;;;;;;5073537;28;20377;-77
2022/03/21 06:30:35;;;;;;;18.23;11.57;;;3.60;98.90;;;;;;5071677;28;20025;-76
2022/03/21 06:33:01;;;;;;;19.20;11.40;;;3.60;99.00;;;;;;5072654;28;20103;-77
2022/03/21 06:35:26;;;;;;;17.35;10.43;;;3.60;98.40;;;;;;5072108;28;20428;-77
2022/03/21 06:37:52;;;;;;;19.35;10.88;;;3.70;98.10;;;;;;5072848;28;20028;-78
2022/03/21 06:40:18;;;;;;;20.63;11.20;;;3.70;97.80;;;;;;5072414;28;20100;-72
2022/03/21 06:42:43;;;;;;;19.65;11.88;;;3.80;97.30;;;;;;5074818;28;20031;-74
2022/03/21 06:45:09;;;;;;;19.52;11.30;;;3.90;96.80;;;;;;5073512;28;20041;-75
2022/03/21 06:47:35;;;;;;;18.35;11.77;;;4.00;95.90;;;;;;5072275;28;20063;-85
2022/03/21 06:50:01;;;;;;;21.52;11.57;;;4.10;95.40;;;;;;5079660;28;20052;-94
2022/03/21 06:52:26;;;;;;;20.17;11.68;;;4.30;96.10;;;;;;5054545;28;20462;-76
2022/03/21 06:54:52;;;;;;;21.58;11.52;;;4.40;96.20;;;;;;5055263;28;20056;-82
2022/03/21 06:57:18;;;;;;;18.38;11.80;;;4.40;95.80;;;;;;5056826;28;20112;-75
2022/03/21 06:59:46;;;;;;;21.52;11.93;;;4.60;95.20;;;;;;5055372;28;20041;-81
2022/03/21 07:02:12;;;;;;;18.45;11.20;;;4.70;94.50;;;;;;5058126;28;20017;-75
2022/03/21 07:04:38;;;;;;;21.20;12.02;;;4.90;94.00;;;;;;5051263;28;20028;-73
2022/03/21 07:07:04;;;;;;;19.63;11.27;;;5.00;94.10;;;;;;5052054;28;20100;-75
2022/03/21 07:09:29;;;;;;;20.77;11.48;;;5.10;94.00;;;;;;5051385;28;20036;-75
2022/03/21 07:11:55;;;;;;;17.00;11.18;;;5.10;94.00;;;;;;5050991;28;20422;-75
2022/03/21 07:14:21;;;;;;;22.77;12.25;;;5.30;93.40;;;;;;5050608;28;20029;-75
2022/03/21 07:16:47;;;;;;;14.23;10.32;;;5.40;92.40;;;;;;5052122;28;20104;-73
2022/03/21 07:19:13;;;;;;;18.25;11.40;;;5.50;91.30;;;;;;5051899;28;20110;-77
2022/03/21 07:21:39;;;;;;;18.52;11.57;;;5.60;90.50;;;;;;5052311;28;20830;-76
2022/03/21 07:24:05;;;;;;;20.80;11.43;;;5.70;89.60;;;;;;5058752;28;20029;-84
2022/03/21 07:26:33;;;;;;;22.20;13.00;;;5.80;88.90;;;;;;5062843;28;20055;-86
2022/03/21 07:29:00;;;;;;;21.58;12.23;;;5.90;87.70;;;;;;5067319;28;20056;-87
2022/03/21 07:31:25;;;;;;;25.45;13.23;;;6.10;85.90;;;;;;5065391;28;20052;-86
2022/03/21 07:33:51;;;;;;;21.60;11.95;;;6.30;84.60;;;;;;5052941;28;20021;-83
2022/03/21 07:36:17;;;;;;;20.10;12.93;;;6.40;84.00;;;;;;5053250;28;20035;-76
2022/03/21 07:38:42;;;;;;;20.33;11.65;;;6.50;81.90;;;;;;5056081;28;20032;-83
2022/03/21 07:41:08;;;;;;;18.52;11.52;;;6.60;80.50;;;;;;5053088;28;20033;-74
2022/03/21 07:43:37;;;;;;;20.42;11.85;;;6.70;80.70;;;;;;5055152;28;20470;-84
2022/03/21 07:48:50;;;;;;;25.95;11.77;;;7.00;78.30;;;;;;5051308;28;20028;-74
2022/03/21 07:51:15;;;;;;;17.85;10.98;;;7.10;77.80;;;;;;5068215;28;20048;-74
2022/03/21 07:53:42;;;;;;;20.15;11.38;;;7.10;78.10;;;;;;5071175;28;20488;-76
2022/03/21 07:56:09;;;;;;;18.52;12.50;;;7.10;78.20;;;;;;5071629;28;20031;-75
2022/03/21 07:58:35;;;;;;;18.25;11.85;;;7.20;78.20;;;;;;5070703;28;20029;-74
2022/03/21 08:01:02;;;;;;;19.50;11.63;;;7.30;77.80;;;;;;5071735;28;20021;-75
2022/03/21 08:03:28;;;;;;;17.83;11.48;;;7.50;76.90;;;;;;5070269;28;20347;-75
2022/03/21 08:05:54;;;;;;;19.20;12.23;;;7.50;76.50;;;;;;5071405;28;20036;-76
2022/03/21 08:08:21;;;;;;;19.25;12.55;;;7.70;75.30;;;;;;5070173;28;20020;-76
2022/03/21 08:10:47;;;;;;;20.77;12.38;;;7.80;74.70;;;;;;5075638;28;20564;-75
2022/03/21 08:13:17;;;;;;;19.10;11.18;;;7.90;75.80;;;;;;5074942;28;20039;-75
2022/03/21 08:15:49;;;;;;;20.60;11.35;;;8.00;75.70;;;;;;5074345;28;20032;-75
2022/03/21 08:18:15;;;;;;;19.83;12.80;;;8.20;74.50;;;;;;5074358;28;20106;-77
2022/03/21 08:20:43;;;;;;;18.92;11.68;;;8.30;73.50;;;;;;5070756;28;20029;-75
2022/03/21 08:23:14;;;;;;;17.70;11.77;;;8.40;73.80;;;;;;5072387;28;20041;-76
2022/03/21 08:25:42;;;;;;;17.42;11.95;;;8.50;72.70;;;;;;5074173;28;20196;-75
2022/03/21 08:28:09;;;;;;;22.70;13.93;;;8.70;71.80;;;;;;5075102;28;20085;-75
2022/03/21 08:30:37;;;;;;;19.05;11.70;;;8.90;69.90;;;;;;5074226;28;20107;-75
2022/03/21 08:33:06;;;;;;;28.77;13.63;;;9.00;69.40;;;;;;5078697;28;20032;-76
2022/03/21 08:35:32;;;;;;;22.92;12.77;;;9.10;67.70;;;;;;5084295;28;20104;-76
2022/03/21 08:37:59;;;;;;;24.73;13.10;;;9.20;66.80;;;;;;5086471;28;20127;-75
2022/03/21 08:40:25;;;;;;;22.92;12.88;;;9.30;66.40;;;;;;5094804;28;20032;-76
2022/03/21 08:42:51;;;;;;;20.08;13.15;;;9.50;67.00;;;;;;5095005;28;20468;-75
2022/03/21 08:45:16;;;;;;;20.38;13.05;;;9.60;65.20;;;;;;5079608;28;20029;-76
2022/03/21 08:47:43;;;;;;;21.17;12.93;;;9.70;65.00;;;;;;5056051;28;20609;-74
2022/03/21 08:50:10;;;;;;;19.52;12.52;;;9.70;64.30;;;;;;5067174;28;20049;-76
2022/03/21 08:52:36;;;;;;;20.80;12.57;;;9.70;65.60;;;;;;5054011;28;20082;-76
2022/03/21 08:55:04;;;;;;;24.10;13.52;;;9.80;66.10;;;;;;5054544;28;20033;-76
2022/03/21 08:57:30;;;;;;;21.40;13.05;;;10.10;63.80;;;;;;5053769;28;20055;-76
2022/03/21 08:59:56;;;;;;;22.80;13.20;;;10.20;64.00;;;;;;5055025;28;20033;-76
2022/03/21 09:02:21;;;;;;;21.67;13.32;;;10.30;64.60;;;;;;5054528;28;20028;-74
2022/03/21 09:04:47;;;;;;;20.50;12.82;;;10.40;72.80;;;;;;5053715;28;20025;-76
2022/03/21 09:07:13;;;;;;;19.98;13.90;;;10.40;86.40;;;;;;5049077;28;20654;-76
2022/03/21 09:09:39;;;;;;;22.20;14.82;;;10.60;87.90;;;;;;5053267;28;20024;-76
2022/03/21 09:12:06;;;;;;;19.30;12.90;;;10.60;89.60;;;;;;5054117;28;20032;-75
2022/03/21 09:14:32;;;;;;;22.58;13.02;;;10.70;89.70;;;;;;5053489;28;20033;-75
2022/03/21 09:16:59;;;;;;;26.98;14.40;;;10.80;80.60;;;;;;5054114;28;20025;-74
2022/03/21 09:19:24;;;;;;;20.45;13.68;;;10.80;90.70;;;;;;5053196;28;20043;-73
2022/03/21 09:21:51;;;;;;;27.55;14.25;;;11.10;75.00;;;;;;5054087;28;20112;-75
2022/03/21 09:24:17;;;;;;;23.83;12.82;;;10.90;66.30;;;;;;5054002;28;20121;-75
2022/03/21 09:26:42;;;;;;;25.00;14.25;;;10.80;62.40;;;;;;5053241;28;20278;-75
2022/03/21 09:29:09;;;;;;;23.55;13.05;;;10.90;61.90;;;;;;5053782;28;20075;-75
2022/03/21 09:31:41;;;;;;;22.17;14.63;;;10.90;61.70;;;;;;5053213;28;20028;-75
2022/03/21 09:34:09;;;;;;;24.30;13.63;;;10.90;61.40;;;;;;5053090;28;20021;-75
2022/03/21 09:36:35;;;;;;;22.42;13.60;;;11.00;61.10;;;;;;5052820;28;20108;-74
2022/03/21 09:39:01;;;;;;;24.95;14.27;;;11.20;61.50;;;;;;5073432;28;20043;-74
2022/03/21 09:41:29;;;;;;;24.10;14.20;;;11.40;61.10;;;;;;5072916;28;20104;-72
2022/03/21 09:43:57;;;;;;;24.35;15.05;;;11.60;60.10;;;;;;5069662;28;20081;-74
2022/03/21 09:46:23;;;;;;;20.88;14.23;;;11.80;59.90;;;;;;5053704;28;20154;-73
2022/03/21 09:48:50;;;;;;;21.25;13.93;;;;;;;;;;5053025;28;20047;-75
2022/03/21 09:51:27;;;;;;;23.63;14.35;;;12.20;59.80;;;;;;5053669;28;20448;-74
2022/03/21 09:53:54;;;;;;;27.73;14.57;;;12.40;58.60;;;;;;5053746;28;20451;-75
2022/03/21 09:56:21;;;;;;;23.63;14.30;;;12.50;59.20;;;;;;5019358;28;20462;-74
2022/03/21 09:58:47;;;;;;;27.70;15.15;;;12.60;57.70;;;;;;5052416;28;20082;-74
2022/03/21 10:01:14;;;;;;;23.35;13.70;;;12.60;58.30;;;;;;5053569;28;20056;-75
2022/03/21 10:03:41;;;;;;;24.42;14.20;;;12.80;58.50;;;;;;5052699;28;20155;-74
2022/03/21 10:06:28;;;;;;;22.73;14.20;;;12.90;57.80;;;;;;5053115;28;20040;-75
2022/03/21 10:09:15;;;;;;;22.25;14.23;;;12.90;58.00;;;;;;5071866;28;20543;-75
2022/03/21 10:11:52;;;;;;;24.00;15.82;;;12.90;57.60;;;;;;5072386;28;20021;-75
2022/03/21 10:14:21;;;;;;;37.25;16.15;;;13.10;58.90;;;;;;5073168;28;20027;-75
2022/03/21 10:16:52;;;;;;;28.70;15.73;;;13.10;57.00;;;;;;5072223;28;20040;-75
2022/03/21 10:19:17;;;;;;;31.65;16.27;;;13.20;57.20;;;;;;5073024;28;20055;-75
2022/03/21 10:22:08;;;;;;;25.70;15.63;;;13.20;56.20;;;;;;5071846;28;20092;-75
2022/03/21 10:24:36;;;;;;;23.42;15.65;;;13.20;56.10;;;;;;5071965;28;20078;-75
2022/03/21 10:27:02;;;;;;;28.00;17.38;;;13.20;55.70;;;;;;5072888;28;20044;-75
2022/03/21 10:29:27;;;;;;;26.52;16.70;;;13.30;56.00;;;;;;5072277;28;20021;-74
2022/03/21 10:31:53;;;;;;;25.95;17.02;;;13.40;55.10;;;;;;5047668;28;20454;-76
2022/03/21 10:34:22;;;;;;;30.70;17.80;;;13.50;54.20;;;;;;5040685;28;20108;-76
2022/03/21 10:37:05;;;;;;;25.33;17.23;;;13.60;54.10;;;;;;5045643;28;20076;-76
2022/03/21 10:39:33;;;;;;;26.02;16.92;;;13.90;54.80;;;;;;5041345;28;20037;-76
2022/03/21 10:42:01;;;;;;;28.70;17.38;;;14.30;52.30;;;;;;5046075;28;20048;-77
2022/03/21 10:44:28;;;;;;;31.77;17.02;;;14.30;52.40;;;;;;5069787;28;20047;-74
2022/03/21 10:46:55;;;;;;;34.80;17.98;;;14.60;51.50;;;;;;5065727;28;20103;-76
2022/03/21 10:49:34;;;;;;;25.55;16.52;;;14.80;50.80;;;;;;5072211;28;20035;-72
2022/03/21 10:52:02;;;;;;;30.05;17.77;;;14.90;50.80;;;;;;5070265;28;20036;-72
2022/03/21 10:54:50;;;;;;;29.50;16.70;;;14.80;49.30;;;;;;5051806;28;20029;-72
2022/03/21 10:57:33;;;;;;;25.15;16.58;;;14.80;49.30;;;;;;5067914;28;20043;-72
2022/03/21 11:00:22;;;;;;;29.10;16.35;;;14.70;50.00;;;;;;5052984;28;20037;-72
2022/03/21 11:03:15;;;;;;;23.75;16.90;;;14.80;49.90;;;;;;5058547;28;20116;-71
2022/03/21 11:05:46;;;;;;;24.30;16.55;;;15.00;49.50;;;;;;5054871;28;20036;-71
2022/03/21 11:08:15;;;;;;;37.28;15.70;;;15.30;49.50;;;;;;5058509;28;20028;-72
2022/03/21 11:10:41;;;;;;;28.55;16.73;;;15.40;49.00;;;;;;5051080;28;20025;-72
2022/03/21 11:13:08;;;;;;;26.73;16.83;;;15.60;48.40;;;;;;5052078;28;20095;-72
2022/03/21 11:15:35;;;;;;;25.55;16.70;;;15.40;65.70;;;;;;5065509;28;20038;-72
2022/03/21 11:18:04;;;;;;;24.83;15.25;;;15.90;48.30;;;;;;5038254;28;20359;-72
2022/03/21 11:20:30;;;;;;;23.08;16.38;;;;;;;;;;5050947;28;20025;-71
2022/03/21 11:23:01;;;;;;;23.17;15.18;;;16.20;48.50;;;;;;5051515;28;20025;-72
2022/03/21 11:25:32;;;;;;;26.92;16.77;;;16.20;48.90;;;;;;5051915;28;20025;-72
2022/03/21 11:28:39;;;;;;;30.35;17.70;;;16.30;48.00;;;;;;5051730;28;20466;-74
2022/03/21 11:31:14;;;;;;;23.40;17.00;;;16.30;47.90;;;;;;5051637;28;20025;-71
2022/03/21 11:34:07;;;;;;;20.48;14.85;;;16.30;48.50;;;;;;5050887;28;20075;-73
2022/03/21 11:36:32;;;;;;;25.98;16.27;;;16.40;48.50;;;;;;5030513;28;20538;-72
2022/03/21 11:39:00;;;;;;;24.67;16.65;;;16.70;48.60;;;;;;5052899;28;20162;-72
2022/03/21 11:41:28;;;;;;;23.85;16.73;;;16.90;47.40;;;;;;5071666;28;20021;-73
2022/03/21 11:44:06;;;;;;;23.45;17.23;;;17.00;46.10;;;;;;5067310;28;20021;-72
2022/03/21 11:46:37;;;;;;;22.35;16.25;;;17.20;45.90;;;;;;5050511;28;20086;-72
2022/03/21 11:49:05;;;;;;;23.63;16.77;;;17.20;45.40;;;;;;5051367;28;20087;-73
2022/03/21 11:51:35;;;;;;;24.23;17.05;;;17.40;45.50;;;;;;5058214;28;20061;-73
2022/03/21 11:54:01;;;;;;;21.65;16.25;;;17.50;44.70;;;;;;5058761;28;20039;-75
2022/03/21 11:57:10;;;;;;;24.75;16.23;;;17.60;44.70;;;;;;5060725;28;20037;-81
2022/03/21 11:59:36;;;;;;;21.90;15.75;;;17.90;44.00;;;;;;5081883;28;20393;-82
2022/03/21 12:02:07;;;;;;;21.80;16.27;;;18.10;44.20;;;;;;5046288;28;20040;-80
2022/03/21 12:04:34;;;;;;;21.98;16.38;;;18.20;43.60;;;;;;5062209;28;20036;-79
2022/03/21 12:07:20;;;;;;;22.20;16.52;;;18.40;42.90;;;;;;5087136;28;20038;-81
2022/03/21 12:09:47;;;;;;;20.38;14.90;;;18.40;42.50;;;;;;5069815;28;20025;-81
2022/03/21 12:12:17;;;;;;;24.17;15.40;;;18.50;43.50;;;;;;5071903;28;20044;-83
2022/03/21 12:14:44;;;;;;;19.38;14.90;;;18.40;42.70;;;;;;5077513;28;20061;-83
2022/03/21 12:17:13;;;;;;;23.48;15.02;;;18.60;42.60;;;;;;5066261;28;20041;-82
2022/03/21 12:19:44;;;;;;;18.83;14.05;;;18.70;41.30;;;;;;5061229;28;20033;-81
2022/03/21 12:22:34;;;;;;;20.88;14.63;;;18.60;42.30;;;;;;5075239;28;20064;-78
2022/03/21 12:25:23;;;;;;;24.15;15.07;;;18.80;41.30;;;;;;5057987;28;20410;-78
2022/03/21 12:27:57;;;;;;;21.25;14.00;;;18.90;41.60;;;;;;5060012;28;20580;-77
2022/03/21 12:30:32;;;;;;;25.75;15.13;;;18.90;41.90;;;;;;5058926;28;20033;-79
2022/03/21 12:33:14;;;;;;;21.15;14.48;;;19.00;41.40;;;;;;5076052;28;20059;-85
2022/03/21 12:35:42;;;;;;;19.15;13.43;;;19.10;40.90;;;;;;5063964;28;20162;-76
2022/03/21 12:38:10;;;;;;;22.33;14.05;;;19.10;40.40;;;;;;5069937;28;20397;-76
2022/03/21 12:40:52;;;;;;;24.67;15.00;;;19.10;41.10;;;;;;5064213;28;20032;-77
2022/03/21 12:43:31;;;;;;;19.38;13.85;;;19.20;39.80;;;;;;5057878;28;20043;-75
2022/03/21 12:46:06;;;;;;;19.13;12.57;;;19.00;40.20;;;;;;5042395;28;20494;-75
2022/03/21 12:48:37;;;;;;;19.38;13.15;;;19.00;41.50;;;;;;5056993;28;20501;-80
2022/03/21 12:51:05;;;;;;;24.50;13.70;;;19.10;40.60;;;;;;5058271;28;20523;-75
2022/03/21 12:53:45;;;;;;;21.50;13.38;;;19.30;40.40;;;;;;5071691;28;20466;-79
2022/03/21 12:56:13;;;;;;;20.80;12.80;;;19.30;39.30;;;;;;5075560;28;20025;-76
2022/03/21 12:58:45;;;;;;;17.58;12.25;;;19.30;39.70;;;;;;5057081;28;20037;-75